Orjan Kihlstrom

Orjan Kihlstrom

Statistiques 2026

  • Courses courues : 258
  • Nb de victoires : 41
  • Nb de places : 112
  • Écart gagnant : 6
  • Réussite à la gagne : 16%
  • Réussite à la place : 43%
Musique : 0a 3a 1a 5a 3a 5a 5a 1a 7a 2a 3a 2a 3a 8a 6a 4a 5a 4a

Orjan Kihlstrom en quelques mots

Orjan Kihlstrom est né le 13 mai 1962 en Suède.

Il possède à son palmarès les deux courses de trot les plus importantes au monde : l'Elitloppet qu'il a remporté en 2003 avec From Above et le Grand Prix d'Amérique dans lequel il s'est imposé en 2014 avec Maharajah. A Vincennes, il a aussi remporté le Prix de France avec Naglo en 2004 et 2005 et le Prix de Paris avec Maharajah en 2011.

DateRangCatégorieAlloc.Dist.HippodromeChevalRed. KmSpé.
25/11/12 2 Trot 3 138€ 2 140m Swe-Solvalla Dakota Chip 1'17"6 Attelé
25/11/12 4 Trot 4 184€ 2 140m Swe-Solvalla Upset Recovery 1'17"3 Attelé
24/11/12 1 Trot 11 506€ 2 640m Swe-Jagersro Udo's Oiler 1'14"9 Attelé
24/11/12 1 Trot 20 920€ 2 140m Swe-Jagersro Saston 1"13'3 Attelé
17/11/12 5 Trot 20 920€ 2 140m Swe-Solvalla Nova J. 1'15"3 Attelé
17/11/12 0 Trot 31 380€ 2 140m Swe-Solvalla Ailanthe 1'15"0 Attelé
17/11/12 1 Trot 52 301€ 2 140m Swe-Solvalla Friction 1'11"5 Attelé
17/11/12 3 Trot 52 301€ 2 140m Swe-Solvalla Disco A.E. 1'12"6 Attelé
15/11/12 1 Trot 4 184€ 2 140m Swe-Gavle Maharajah 1'14"3 Attelé
14/11/12 2 Trot 20 920€ 2 640m Swe-Solvalla Increased Workload 1'14"8 Attelé
14/11/12 1 Trot 8 995€ 2 140m Swe-Solvalla Tidied Accelerator 1'13"8 Attelé
13/11/12 7 Trot 2 615€ 2 140m Swe-Eskilstuna Avanto 1'18"3 Attelé
10/11/12 2 Trot 15 690€ 2 140m Swe-Halmstad Nimbus Hackstable 1'13"0 Attelé
10/11/12 5 Trot 20 920€ 1 640m Swe-Halmstad Timetosaygoodbye 1'12"6 Attelé
10/11/12 D Trot 11 506€ 1 640m Swe-Halmstad Balticas Yahoo Attelé
10/11/12 0 Trot 3 138€ 2 640m Swe-Halmstad Ekets Gentleman Attelé
08/11/12 3 Trot 6 276€ 2 140m Swe-Aby Tara Defi 1'14"7 Attelé
03/11/12 D Trot 2 615€ 1 640m Swe-Eskilstuna Adam'S Eve Attelé
03/11/12 7 Trot 2 615€ 2 140m Swe-Eskilstuna Walk To Remember 1'15"4 Attelé
03/11/12 4 Trot 3 138€ 2 640m Swe-Eskilstuna Koreatj 1'15"4 Attelé
03/11/12 4 Trot 104 602€ 2 140m Swe-Eskilstuna Noble Knight 1'13"9 Attelé
03/11/12 0 Trot 104 602€ 2 140m Swe-Eskilstuna Mousse 1'14"5 Attelé
03/11/12 1 Trot 20 920€ 1 640m Swe-Eskilstuna Friction 1'11"6 Attelé
03/11/12 3 Trot 104 602€ 2 140m Swe-Eskilstuna Parodie 1'12"9 Attelé
03/11/12 5 Trot 104 602€ 2 140m Swe-Eskilstuna Panne de Moteur 1'13"8 Attelé
03/11/12 D Trot 2 092€ 1 640m Swe-Eskilstuna Sign Of The Pines Attelé
03/11/12 0 Trot 2 092€ 2 160m Swe-Eskilstuna Yorkshire 1'18"3 Attelé
02/11/12 0 Trot 10 460€ 2 100m Swe-Orebro Candor Hall 1'15"4 Attelé
31/10/12 2 Trot 26 150€ 2 140m Swe-Solvalla Tidied Accelerator 1'15"0 Attelé
24/10/12 6 Trot 13 075€ 2 140m Swe-Solvalla Thai Investment 1'15"2 Attelé
24/10/12 6 Trot 13 075€ 2 140m Swe-Solvalla H.R. Arn 1'14"3 Attelé
24/10/12 0 Trot 13 075€ 2 140m Swe-Solvalla Latitude Broline Attelé
24/10/12 5 Trot 13 075€ 2 140m Swe-Solvalla David Sisu 1'14"6 Attelé
24/10/12 2 Trot 13 075€ 2 140m Swe-Solvalla Mousse 1'14"7 Attelé
24/10/12 0 Trot 13 075€ 2 140m Swe-Solvalla Scarlet Tabac Attelé
23/10/12 1 Trot 4 184€ 1 640m Swe-Eskilstuna Dont Wear Pjs 1"12'2 Attelé
17/10/12 6 Trot 10 460€ 4 000m Swe-Solvalla Socrate du Noyer 1'18"4 Attelé
17/10/12 6 Trot 6 276€ 2 140m Swe-Solvalla Inhibited 1'13"6 Attelé
07/10/12 8 Trot 2 100m Ity-Rome Pojke Kronos 1'14"8 Attelé
07/10/12 8 Trot 2 100m Ity-Rome Peak State Kronos 1'15"3 Attelé
06/10/12 6 Trot 20 920€ 1 640m Swe-Hagmyren Timetosaygoodbye 1'12"7 Attelé
30/09/12 6 Trot 4 184€ 1 640m Swe-Solvalla Frenchise 1'13"0 Attelé
30/09/12 0 Trot 4 184€ 2 140m Swe-Solvalla Fromage 1'16"2 Attelé
30/09/12 1 Trot 15 690€ 2 140m Swe-Solvalla Latitude Broline 1'13"9 Attelé
30/09/12 4 Trot 10 460€ 2 140m Swe-Solvalla Rowena Ravenclaw 1'14"9 Attelé
30/09/12 6 Trot 146 443€ 2 140m Swe-Solvalla Mousse 1'14"1 Attelé
30/09/12 4 Trot 10 460€ 2 140m Swe-Solvalla H.R. Arn 1'14"3 Attelé
30/09/12 2 Trot 236 236€ 2 140m Swe-Solvalla Save The Quick 1'11"7 Attelé
30/09/12 D Trot 209 205€ 2 640m Swe-Solvalla Standout Attelé
30/09/12 5 Trot 4 184€ 2 140m Swe-Solvalla High Stage 1'14"2 Attelé